sensor_id;sensor_type;location;lat;lon;timestamp;P1;durP1;ratioP1;P2;durP2;ratioP2
45970;SDS011;31681;48.982;8.394;2023-06-22T00:00:15;6.82;;;4.85;;
45970;SDS011;31681;48.982;8.394;2023-06-22T00:02:41;6.15;;;4.50;;
45970;SDS011;31681;48.982;8.394;2023-06-22T00:05:07;6.05;;;4.40;;
45970;SDS011;31681;48.982;8.394;2023-06-22T00:07:32;7.13;;;4.70;;
45970;SDS011;31681;48.982;8.394;2023-06-22T00:09:57;6.60;;;4.57;;
45970;SDS011;31681;48.982;8.394;2023-06-22T00:12:22;5.30;;;4.53;;
45970;SDS011;31681;48.982;8.394;2023-06-22T00:14:48;7.45;;;3.88;;
45970;SDS011;31681;48.982;8.394;2023-06-22T00:17:13;10.55;;;4.90;;
45970;SDS011;31681;48.982;8.394;2023-06-22T00:19:38;6.03;;;4.40;;
45970;SDS011;31681;48.982;8.394;2023-06-22T00:22:05;8.77;;;4.85;;
45970;SDS011;31681;48.982;8.394;2023-06-22T00:24:30;5.95;;;4.97;;
45970;SDS011;31681;48.982;8.394;2023-06-22T00:26:56;6.88;;;5.10;;
45970;SDS011;31681;48.982;8.394;2023-06-22T00:29:21;7.05;;;5.47;;
45970;SDS011;31681;48.982;8.394;2023-06-22T00:31:46;6.40;;;4.80;;
45970;SDS011;31681;48.982;8.394;2023-06-22T00:34:12;5.70;;;4.47;;
45970;SDS011;31681;48.982;8.394;2023-06-22T00:36:37;14.60;;;6.38;;
45970;SDS011;31681;48.982;8.394;2023-06-22T00:39:02;10.20;;;5.93;;
45970;SDS011;31681;48.982;8.394;2023-06-22T00:41:29;8.60;;;5.18;;
45970;SDS011;31681;48.982;8.394;2023-06-22T00:43:54;7.95;;;5.43;;
45970;SDS011;31681;48.982;8.394;2023-06-22T00:46:20;8.38;;;5.63;;
45970;SDS011;31681;48.982;8.394;2023-06-22T00:48:46;11.40;;;6.00;;
45970;SDS011;31681;48.982;8.394;2023-06-22T00:51:11;11.35;;;6.38;;
45970;SDS011;31681;48.982;8.394;2023-06-22T00:53:39;10.63;;;6.80;;
45970;SDS011;31681;48.982;8.394;2023-06-22T00:56:06;9.18;;;6.45;;
45970;SDS011;31681;48.982;8.394;2023-06-22T00:58:35;10.57;;;7.05;;
45970;SDS011;31681;48.982;8.394;2023-06-22T01:01:00;11.18;;;6.55;;
45970;SDS011;31681;48.982;8.394;2023-06-22T01:03:26;10.35;;;6.57;;
45970;SDS011;31681;48.982;8.394;2023-06-22T01:05:51;8.80;;;6.53;;
45970;SDS011;31681;48.982;8.394;2023-06-22T01:13:11;9.45;;;6.35;;
45970;SDS011;31681;48.982;8.394;2023-06-22T01:15:43;9.70;;;6.80;;
45970;SDS011;31681;48.982;8.394;2023-06-22T01:18:11;8.35;;;6.63;;
45970;SDS011;31681;48.982;8.394;2023-06-22T01:20:38;10.75;;;7.03;;
45970;SDS011;31681;48.982;8.394;2023-06-22T01:25:59;11.35;;;7.70;;
45970;SDS011;31681;48.982;8.394;2023-06-22T01:31:08;9.32;;;6.97;;
45970;SDS011;31681;48.982;8.394;2023-06-22T01:33:35;9.98;;;7.63;;
45970;SDS011;31681;48.982;8.394;2023-06-22T01:36:02;9.75;;;7.70;;
45970;SDS011;31681;48.982;8.394;2023-06-22T01:38:28;10.93;;;7.40;;
45970;SDS011;31681;48.982;8.394;2023-06-22T01:40:54;9.60;;;6.93;;
45970;SDS011;31681;48.982;8.394;2023-06-22T01:43:20;12.50;;;8.15;;
45970;SDS011;31681;48.982;8.394;2023-06-22T01:45:48;10.00;;;7.70;;
45970;SDS011;31681;48.982;8.394;2023-06-22T01:48:13;9.95;;;8.00;;
45970;SDS011;31681;48.982;8.394;2023-06-22T01:50:38;9.80;;;8.18;;
45970;SDS011;31681;48.982;8.394;2023-06-22T01:53:04;12.05;;;8.45;;
45970;SDS011;31681;48.982;8.394;2023-06-22T01:55:31;12.88;;;7.72;;
45970;SDS011;31681;48.982;8.394;2023-06-22T01:57:57;10.60;;;8.07;;
45970;SDS011;31681;48.982;8.394;2023-06-22T02:00:22;10.43;;;8.27;;
45970;SDS011;31681;48.982;8.394;2023-06-22T02:02:59;9.82;;;8.48;;
45970;SDS011;31681;48.982;8.394;2023-06-22T02:05:28;13.90;;;8.75;;
45970;SDS011;31681;48.982;8.394;2023-06-22T02:07:58;11.13;;;8.10;;
45970;SDS011;31681;48.982;8.394;2023-06-22T02:10:25;13.05;;;7.97;;
45970;SDS011;31681;48.982;8.394;2023-06-22T02:12:51;9.63;;;7.30;;
45970;SDS011;31681;48.982;8.394;2023-06-22T02:15:17;10.18;;;8.35;;
45970;SDS011;31681;48.982;8.394;2023-06-22T02:17:45;11.15;;;7.57;;
45970;SDS011;31681;48.982;8.394;2023-06-22T02:20:14;12.27;;;8.27;;
45970;SDS011;31681;48.982;8.394;2023-06-22T02:22:40;13.02;;;8.60;;
45970;SDS011;31681;48.982;8.394;2023-06-22T02:25:08;12.65;;;8.55;;
45970;SDS011;31681;48.982;8.394;2023-06-22T02:27:33;11.30;;;9.02;;
45970;SDS011;31681;48.982;8.394;2023-06-22T02:29:58;11.90;;;8.50;;
45970;SDS011;31681;48.982;8.394;2023-06-22T02:32:24;13.73;;;8.48;;
45970;SDS011;31681;48.982;8.394;2023-06-22T02:34:49;10.60;;;8.50;;
45970;SDS011;31681;48.982;8.394;2023-06-22T02:37:15;11.07;;;8.10;;
45970;SDS011;31681;48.982;8.394;2023-06-22T02:39:40;12.48;;;9.32;;
45970;SDS011;31681;48.982;8.394;2023-06-22T02:42:06;12.25;;;8.23;;
45970;SDS011;31681;48.982;8.394;2023-06-22T02:44:33;11.95;;;8.70;;
45970;SDS011;31681;48.982;8.394;2023-06-22T02:47:01;15.07;;;8.48;;
45970;SDS011;31681;48.982;8.394;2023-06-22T02:49:26;10.07;;;8.20;;
45970;SDS011;31681;48.982;8.394;2023-06-22T02:51:54;10.95;;;8.52;;
45970;SDS011;31681;48.982;8.394;2023-06-22T02:54:21;12.13;;;9.25;;
45970;SDS011;31681;48.982;8.394;2023-06-22T02:56:48;14.65;;;8.75;;
45970;SDS011;31681;48.982;8.394;2023-06-22T02:59:16;14.02;;;9.05;;
45970;SDS011;31681;48.982;8.394;2023-06-22T03:01:45;11.38;;;8.80;;
45970;SDS011;31681;48.982;8.394;2023-06-22T03:04:21;12.38;;;8.77;;
45970;SDS011;31681;48.982;8.394;2023-06-22T03:06:54;10.82;;;8.18;;
45970;SDS011;31681;48.982;8.394;2023-06-22T03:09:36;11.52;;;9.30;;
45970;SDS011;31681;48.982;8.394;2023-06-22T03:12:08;12.80;;;9.20;;
45970;SDS011;31681;48.982;8.394;2023-06-22T03:14:45;12.63;;;8.40;;
45970;SDS011;31681;48.982;8.394;2023-06-22T03:17:10;12.15;;;8.85;;
45970;SDS011;31681;48.982;8.394;2023-06-22T03:19:39;10.63;;;8.45;;
45970;SDS011;31681;48.982;8.394;2023-06-22T03:22:12;12.77;;;9.70;;
45970;SDS011;31681;48.982;8.394;2023-06-22T03:24:44;12.35;;;8.27;;
45970;SDS011;31681;48.982;8.394;2023-06-22T03:27:15;13.02;;;8.63;;
45970;SDS011;31681;48.982;8.394;2023-06-22T03:29:58;10.27;;;8.35;;
45970;SDS011;31681;48.982;8.394;2023-06-22T03:32:24;10.95;;;7.90;;
45970;SDS011;31681;48.982;8.394;2023-06-22T03:35:00;12.98;;;9.25;;
45970;SDS011;31681;48.982;8.394;2023-06-22T03:37:29;14.35;;;9.32;;
45970;SDS011;31681;48.982;8.394;2023-06-22T03:40:07;12.80;;;8.57;;
45970;SDS011;31681;48.982;8.394;2023-06-22T03:42:33;13.20;;;8.65;;
45970;SDS011;31681;48.982;8.394;2023-06-22T03:45:03;12.65;;;8.73;;
45970;SDS011;31681;48.982;8.394;2023-06-22T03:47:31;12.07;;;8.50;;
45970;SDS011;31681;48.982;8.394;2023-06-22T03:49:57;12.00;;;8.95;;
45970;SDS011;31681;48.982;8.394;2023-06-22T03:52:22;13.50;;;8.65;;
45970;SDS011;31681;48.982;8.394;2023-06-22T03:54:50;11.93;;;8.60;;
45970;SDS011;31681;48.982;8.394;2023-06-22T03:57:15;10.73;;;8.95;;
45970;SDS011;31681;48.982;8.394;2023-06-22T03:59:41;12.85;;;8.55;;
45970;SDS011;31681;48.982;8.394;2023-06-22T04:02:06;12.60;;;8.90;;
45970;SDS011;31681;48.982;8.394;2023-06-22T04:04:34;11.35;;;9.02;;
45970;SDS011;31681;48.982;8.394;2023-06-22T04:07:00;10.93;;;8.55;;
45970;SDS011;31681;48.982;8.394;2023-06-22T04:09:25;10.27;;;8.65;;
45970;SDS011;31681;48.982;8.394;2023-06-22T04:11:58;13.13;;;8.27;;
45970;SDS011;31681;48.982;8.394;2023-06-22T04:14:23;12.48;;;8.95;;
45970;SDS011;31681;48.982;8.394;2023-06-22T04:17:09;14.38;;;8.48;;
45970;SDS011;31681;48.982;8.394;2023-06-22T04:19:34;12.57;;;8.55;;
45970;SDS011;31681;48.982;8.394;2023-06-22T04:21:59;12.95;;;9.13;;
45970;SDS011;31681;48.982;8.394;2023-06-22T04:24:27;19.80;;;9.32;;
45970;SDS011;31681;48.982;8.394;2023-06-22T04:27:07;13.80;;;8.55;;
45970;SDS011;31681;48.982;8.394;2023-06-22T04:29:52;11.75;;;8.95;;
45970;SDS011;31681;48.982;8.394;2023-06-22T04:32:18;13.63;;;9.10;;
45970;SDS011;31681;48.982;8.394;2023-06-22T04:34:43;11.77;;;8.77;;
45970;SDS011;31681;48.982;8.394;2023-06-22T04:37:21;12.07;;;9.07;;
45970;SDS011;31681;48.982;8.394;2023-06-22T04:39:57;10.98;;;9.20;;
45970;SDS011;31681;48.982;8.394;2023-06-22T04:42:28;13.68;;;8.02;;
45970;SDS011;31681;48.982;8.394;2023-06-22T04:44:56;14.88;;;9.02;;
45970;SDS011;31681;48.982;8.394;2023-06-22T04:47:24;10.90;;;8.70;;
45970;SDS011;31681;48.982;8.394;2023-06-22T04:50:05;12.48;;;8.77;;
45970;SDS011;31681;48.982;8.394;2023-06-22T04:52:39;13.60;;;8.25;;
45970;SDS011;31681;48.982;8.394;2023-06-22T04:55:05;12.52;;;8.98;;
45970;SDS011;31681;48.982;8.394;2023-06-22T04:57:30;10.93;;;8.77;;
45970;SDS011;31681;48.982;8.394;2023-06-22T05:00:00;12.90;;;9.05;;
45970;SDS011;31681;48.982;8.394;2023-06-22T05:02:40;12.35;;;8.52;;
45970;SDS011;31681;48.982;8.394;2023-06-22T05:05:06;13.27;;;8.73;;
45970;SDS011;31681;48.982;8.394;2023-06-22T05:07:33;11.20;;;8.23;;
45970;SDS011;31681;48.982;8.394;2023-06-22T05:09:58;14.02;;;9.23;;
45970;SDS011;31681;48.982;8.394;2023-06-22T05:12:27;14.50;;;8.55;;
45970;SDS011;31681;48.982;8.394;2023-06-22T05:15:02;15.07;;;9.23;;
45970;SDS011;31681;48.982;8.394;2023-06-22T05:17:39;12.48;;;8.38;;
45970;SDS011;31681;48.982;8.394;2023-06-22T05:20:10;11.30;;;8.40;;
45970;SDS011;31681;48.982;8.394;2023-06-22T05:22:40;11.77;;;8.80;;
45970;SDS011;31681;48.982;8.394;2023-06-22T05:25:11;11.00;;;7.68;;
45970;SDS011;31681;48.982;8.394;2023-06-22T05:27:52;13.50;;;8.60;;
45970;SDS011;31681;48.982;8.394;2023-06-22T05:30:25;9.15;;;7.15;;
45970;SDS011;31681;48.982;8.394;2023-06-22T05:32:59;10.88;;;7.70;;
45970;SDS011;31681;48.982;8.394;2023-06-22T05:35:27;12.77;;;8.38;;
45970;SDS011;31681;48.982;8.394;2023-06-22T05:37:55;12.15;;;8.32;;
45970;SDS011;31681;48.982;8.394;2023-06-22T05:40:20;10.98;;;8.32;;
45970;SDS011;31681;48.982;8.394;2023-06-22T05:42:46;13.43;;;8.18;;
45970;SDS011;31681;48.982;8.394;2023-06-22T05:45:11;12.25;;;8.35;;
45970;SDS011;31681;48.982;8.394;2023-06-22T05:47:40;9.48;;;7.38;;
45970;SDS011;31681;48.982;8.394;2023-06-22T05:50:05;8.93;;;7.40;;
45970;SDS011;31681;48.982;8.394;2023-06-22T05:52:33;11.93;;;8.00;;
45970;SDS011;31681;48.982;8.394;2023-06-22T05:54:59;10.63;;;7.72;;
45970;SDS011;31681;48.982;8.394;2023-06-22T05:57:24;12.95;;;8.18;;
45970;SDS011;31681;48.982;8.394;2023-06-22T06:00:02;11.43;;;8.10;;
45970;SDS011;31681;48.982;8.394;2023-06-22T06:02:29;11.77;;;8.45;;
45970;SDS011;31681;48.982;8.394;2023-06-22T06:05:11;15.40;;;8.23;;
45970;SDS011;31681;48.982;8.394;2023-06-22T06:07:42;12.85;;;9.27;;
45970;SDS011;31681;48.982;8.394;2023-06-22T06:10:09;13.82;;;8.32;;
45970;SDS011;31681;48.982;8.394;2023-06-22T06:12:35;11.70;;;7.78;;
45970;SDS011;31681;48.982;8.394;2023-06-22T06:15:01;13.57;;;8.35;;
45970;SDS011;31681;48.982;8.394;2023-06-22T06:17:29;11.40;;;8.25;;
45970;SDS011;31681;48.982;8.394;2023-06-22T06:19:55;12.77;;;8.82;;
45970;SDS011;31681;48.982;8.394;2023-06-22T06:22:28;12.35;;;8.13;;
45970;SDS011;31681;48.982;8.394;2023-06-22T06:24:53;12.20;;;7.90;;
45970;SDS011;31681;48.982;8.394;2023-06-22T06:27:19;12.40;;;8.80;;
45970;SDS011;31681;48.982;8.394;2023-06-22T06:29:44;11.27;;;7.72;;
45970;SDS011;31681;48.982;8.394;2023-06-22T06:32:22;11.50;;;7.82;;
45970;SDS011;31681;48.982;8.394;2023-06-22T06:34:51;13.07;;;8.43;;
45970;SDS011;31681;48.982;8.394;2023-06-22T06:37:50;13.80;;;7.18;;
45970;SDS011;31681;48.982;8.394;2023-06-22T06:40:16;13.30;;;7.45;;
45970;SDS011;31681;48.982;8.394;2023-06-22T06:42:58;9.98;;;7.80;;
45970;SDS011;31681;48.982;8.394;2023-06-22T06:45:23;11.45;;;7.68;;
45970;SDS011;31681;48.982;8.394;2023-06-22T06:48:02;12.00;;;7.65;;
45970;SDS011;31681;48.982;8.394;2023-06-22T06:50:28;10.60;;;7.50;;
45970;SDS011;31681;48.982;8.394;2023-06-22T06:53:06;11.77;;;8.27;;
45970;SDS011;31681;48.982;8.394;2023-06-22T06:55:37;12.13;;;7.88;;
45970;SDS011;31681;48.982;8.394;2023-06-22T06:58:10;11.27;;;7.57;;
45970;SDS011;31681;48.982;8.394;2023-06-22T07:00:47;12.30;;;7.85;;
45970;SDS011;31681;48.982;8.394;2023-06-22T07:03:20;11.48;;;7.68;;
45970;SDS011;31681;48.982;8.394;2023-06-22T07:05:53;17.35;;;8.18;;
45970;SDS011;31681;48.982;8.394;2023-06-22T07:08:21;14.48;;;7.82;;
45970;SDS011;31681;48.982;8.394;2023-06-22T07:10:54;12.20;;;8.30;;
45970;SDS011;31681;48.982;8.394;2023-06-22T07:13:22;12.65;;;7.70;;
45970;SDS011;31681;48.982;8.394;2023-06-22T07:16:05;9.85;;;7.35;;
45970;SDS011;31681;48.982;8.394;2023-06-22T07:18:30;11.40;;;7.20;;
45970;SDS011;31681;48.982;8.394;2023-06-22T07:21:05;8.40;;;6.97;;
45970;SDS011;31681;48.982;8.394;2023-06-22T07:23:38;9.68;;;6.78;;
45970;SDS011;31681;48.982;8.394;2023-06-22T07:26:13;11.95;;;7.35;;
45970;SDS011;31681;48.982;8.394;2023-06-22T07:28:46;8.23;;;6.63;;
45970;SDS011;31681;48.982;8.394;2023-06-22T07:31:19;9.50;;;6.57;;
45970;SDS011;31681;48.982;8.394;2023-06-22T07:33:47;13.70;;;7.20;;
45970;SDS011;31681;48.982;8.394;2023-06-22T07:36:16;10.45;;;6.95;;
45970;SDS011;31681;48.982;8.394;2023-06-22T07:38:50;10.23;;;6.57;;
45970;SDS011;31681;48.982;8.394;2023-06-22T07:41:31;9.25;;;7.20;;
45970;SDS011;31681;48.982;8.394;2023-06-22T07:44:04;9.30;;;5.75;;
45970;SDS011;31681;48.982;8.394;2023-06-22T07:46:32;9.13;;;6.70;;
45970;SDS011;31681;48.982;8.394;2023-06-22T07:48:59;8.30;;;6.35;;
45970;SDS011;31681;48.982;8.394;2023-06-22T07:51:44;12.48;;;6.63;;
45970;SDS011;31681;48.982;8.394;2023-06-22T07:54:09;11.60;;;6.75;;
45970;SDS011;31681;48.982;8.394;2023-06-22T07:56:36;14.23;;;7.18;;
45970;SDS011;31681;48.982;8.394;2023-06-22T07:59:01;10.32;;;6.55;;
45970;SDS011;31681;48.982;8.394;2023-06-22T08:01:28;10.18;;;6.43;;
45970;SDS011;31681;48.982;8.394;2023-06-22T08:03:54;9.63;;;6.35;;
45970;SDS011;31681;48.982;8.394;2023-06-22T08:06:24;11.57;;;6.65;;
45970;SDS011;31681;48.982;8.394;2023-06-22T08:08:57;7.38;;;6.50;;
45970;SDS011;31681;48.982;8.394;2023-06-22T08:11:34;10.05;;;6.43;;
45970;SDS011;31681;48.982;8.394;2023-06-22T08:14:15;11.20;;;6.53;;
45970;SDS011;31681;48.982;8.394;2023-06-22T08:16:41;10.10;;;6.03;;
45970;SDS011;31681;48.982;8.394;2023-06-22T08:19:15;12.07;;;6.45;;
45970;SDS011;31681;48.982;8.394;2023-06-22T08:21:43;13.95;;;6.63;;
45970;SDS011;31681;48.982;8.394;2023-06-22T08:24:19;8.98;;;6.45;;
45970;SDS011;31681;48.982;8.394;2023-06-22T08:26:44;8.25;;;5.95;;
45970;SDS011;31681;48.982;8.394;2023-06-22T08:29:26;10.35;;;6.10;;
45970;SDS011;31681;48.982;8.394;2023-06-22T08:32:00;10.77;;;6.60;;
45970;SDS011;31681;48.982;8.394;2023-06-22T08:34:28;10.63;;;6.78;;
45970;SDS011;31681;48.982;8.394;2023-06-22T08:36:56;10.02;;;6.70;;
45970;SDS011;31681;48.982;8.394;2023-06-22T08:39:34;10.13;;;6.38;;
45970;SDS011;31681;48.982;8.394;2023-06-22T08:42:09;10.02;;;6.18;;
45970;SDS011;31681;48.982;8.394;2023-06-22T08:44:41;9.25;;;6.18;;
45970;SDS011;31681;48.982;8.394;2023-06-22T08:47:07;8.82;;;6.22;;
45970;SDS011;31681;48.982;8.394;2023-06-22T08:49:39;9.00;;;5.68;;
45970;SDS011;31681;48.982;8.394;2023-06-22T08:52:07;9.20;;;6.18;;
45970;SDS011;31681;48.982;8.394;2023-06-22T08:54:44;9.82;;;5.72;;
45970;SDS011;31681;48.982;8.394;2023-06-22T08:57:15;8.05;;;6.47;;
45970;SDS011;31681;48.982;8.394;2023-06-22T08:59:50;10.30;;;6.22;;
45970;SDS011;31681;48.982;8.394;2023-06-22T09:02:26;11.20;;;5.70;;
45970;SDS011;31681;48.982;8.394;2023-06-22T09:04:55;11.70;;;5.43;;
45970;SDS011;31681;48.982;8.394;2023-06-22T09:07:26;8.55;;;5.82;;
45970;SDS011;31681;48.982;8.394;2023-06-22T09:10:09;11.77;;;6.13;;
45970;SDS011;31681;48.982;8.394;2023-06-22T09:12:42;9.45;;;6.25;;
45970;SDS011;31681;48.982;8.394;2023-06-22T09:15:11;9.90;;;6.78;;
45970;SDS011;31681;48.982;8.394;2023-06-22T09:17:36;11.40;;;6.22;;
45970;SDS011;31681;48.982;8.394;2023-06-22T09:20:02;9.20;;;6.15;;
45970;SDS011;31681;48.982;8.394;2023-06-22T09:22:30;9.25;;;5.95;;
45970;SDS011;31681;48.982;8.394;2023-06-22T09:24:56;9.70;;;5.95;;
45970;SDS011;31681;48.982;8.394;2023-06-22T09:27:21;8.85;;;6.07;;
45970;SDS011;31681;48.982;8.394;2023-06-22T09:30:03;7.03;;;5.70;;
45970;SDS011;31681;48.982;8.394;2023-06-22T09:32:29;10.18;;;6.45;;
45970;SDS011;31681;48.982;8.394;2023-06-22T09:35:11;8.43;;;5.55;;
45970;SDS011;31681;48.982;8.394;2023-06-22T09:37:40;9.27;;;5.78;;
45970;SDS011;31681;48.982;8.394;2023-06-22T09:40:06;8.82;;;5.68;;
45970;SDS011;31681;48.982;8.394;2023-06-22T09:42:54;9.68;;;5.93;;
45970;SDS011;31681;48.982;8.394;2023-06-22T09:45:20;7.18;;;5.90;;
45970;SDS011;31681;48.982;8.394;2023-06-22T09:47:45;9.43;;;6.40;;
45970;SDS011;31681;48.982;8.394;2023-06-22T09:50:22;11.25;;;6.18;;
45970;SDS011;31681;48.982;8.394;2023-06-22T09:52:58;7.07;;;5.78;;
45970;SDS011;31681;48.982;8.394;2023-06-22T09:55:23;8.43;;;6.03;;
45970;SDS011;31681;48.982;8.394;2023-06-22T09:57:58;9.65;;;6.15;;
45970;SDS011;31681;48.982;8.394;2023-06-22T10:00:34;11.45;;;6.45;;
45970;SDS011;31681;48.982;8.394;2023-06-22T10:03:07;9.35;;;6.15;;
45970;SDS011;31681;48.982;8.394;2023-06-22T10:05:39;7.65;;;6.10;;
45970;SDS011;31681;48.982;8.394;2023-06-22T10:08:12;8.77;;;5.70;;
45970;SDS011;31681;48.982;8.394;2023-06-22T10:10:47;7.68;;;6.03;;
45970;SDS011;31681;48.982;8.394;2023-06-22T10:13:12;9.27;;;6.25;;
45970;SDS011;31681;48.982;8.394;2023-06-22T10:15:52;9.13;;;6.40;;
45970;SDS011;31681;48.982;8.394;2023-06-22T10:18:27;8.98;;;6.30;;
45970;SDS011;31681;48.982;8.394;2023-06-22T10:20:55;8.63;;;6.13;;
45970;SDS011;31681;48.982;8.394;2023-06-22T10:23:23;7.85;;;6.03;;
45970;SDS011;31681;48.982;8.394;2023-06-22T10:26:05;10.80;;;6.25;;
45970;SDS011;31681;48.982;8.394;2023-06-22T10:28:33;12.30;;;6.18;;
45970;SDS011;31681;48.982;8.394;2023-06-22T10:31:01;10.05;;;6.68;;
45970;SDS011;31681;48.982;8.394;2023-06-22T10:33:44;9.48;;;6.40;;
45970;SDS011;31681;48.982;8.394;2023-06-22T10:36:13;8.27;;;5.95;;
45970;SDS011;31681;48.982;8.394;2023-06-22T10:38:41;9.20;;;6.05;;
45970;SDS011;31681;48.982;8.394;2023-06-22T10:41:12;6.80;;;5.88;;
45970;SDS011;31681;48.982;8.394;2023-06-22T10:43:57;9.50;;;6.68;;
45970;SDS011;31681;48.982;8.394;2023-06-22T10:46:25;9.25;;;6.25;;
45970;SDS011;31681;48.982;8.394;2023-06-22T10:48:51;8.98;;;5.88;;
45970;SDS011;31681;48.982;8.394;2023-06-22T10:51:24;11.77;;;6.85;;
45970;SDS011;31681;48.982;8.394;2023-06-22T10:53:58;13.73;;;6.70;;
45970;SDS011;31681;48.982;8.394;2023-06-22T10:56:38;9.73;;;6.18;;
45970;SDS011;31681;48.982;8.394;2023-06-22T10:59:06;10.55;;;6.70;;
45970;SDS011;31681;48.982;8.394;2023-06-22T11:01:38;9.48;;;5.95;;
45970;SDS011;31681;48.982;8.394;2023-06-22T11:04:14;9.25;;;6.15;;
45970;SDS011;31681;48.982;8.394;2023-06-22T11:06:47;14.68;;;7.05;;
45970;SDS011;31681;48.982;8.394;2023-06-22T11:09:22;9.40;;;5.95;;
45970;SDS011;31681;48.982;8.394;2023-06-22T11:11:50;13.88;;;6.95;;
45970;SDS011;31681;48.982;8.394;2023-06-22T11:14:23;8.38;;;6.38;;
45970;SDS011;31681;48.982;8.394;2023-06-22T11:16:48;10.50;;;6.38;;
45970;SDS011;31681;48.982;8.394;2023-06-22T11:19:30;14.18;;;6.75;;
45970;SDS011;31681;48.982;8.394;2023-06-22T11:21:55;13.00;;;6.45;;
45970;SDS011;31681;48.982;8.394;2023-06-22T11:24:35;12.32;;;6.75;;
45970;SDS011;31681;48.982;8.394;2023-06-22T11:27:00;11.75;;;6.32;;
45970;SDS011;31681;48.982;8.394;2023-06-22T11:29:33;8.35;;;6.30;;
45970;SDS011;31681;48.982;8.394;2023-06-22T11:32:06;6.57;;;5.65;;
45970;SDS011;31681;48.982;8.394;2023-06-22T11:34:43;9.88;;;6.10;;
45970;SDS011;31681;48.982;8.394;2023-06-22T11:37:16;12.45;;;5.97;;
45970;SDS011;31681;48.982;8.394;2023-06-22T11:39:49;12.88;;;6.50;;
45970;SDS011;31681;48.982;8.394;2023-06-22T11:42:24;11.05;;;6.47;;
45970;SDS011;31681;48.982;8.394;2023-06-22T11:44:50;9.38;;;6.38;;
45970;SDS011;31681;48.982;8.394;2023-06-22T11:47:20;12.52;;;6.68;;
45970;SDS011;31681;48.982;8.394;2023-06-22T11:50:04;10.50;;;7.32;;
45970;SDS011;31681;48.982;8.394;2023-06-22T11:52:33;10.25;;;6.32;;
45970;SDS011;31681;48.982;8.394;2023-06-22T11:55:06;14.32;;;6.75;;
45970;SDS011;31681;48.982;8.394;2023-06-22T11:57:55;7.97;;;6.40;;
45970;SDS011;31681;48.982;8.394;2023-06-22T12:00:39;9.88;;;6.70;;
45970;SDS011;31681;48.982;8.394;2023-06-22T12:03:13;9.40;;;5.90;;
45970;SDS011;31681;48.982;8.394;2023-06-22T12:05:41;8.05;;;6.25;;
45970;SDS011;31681;48.982;8.394;2023-06-22T12:08:16;9.80;;;6.30;;
45970;SDS011;31681;48.982;8.394;2023-06-22T12:10:49;9.85;;;6.80;;
45970;SDS011;31681;48.982;8.394;2023-06-22T12:13:22;8.13;;;6.13;;
45970;SDS011;31681;48.982;8.394;2023-06-22T12:15:47;10.73;;;6.63;;
45970;SDS011;31681;48.982;8.394;2023-06-22T12:18:29;11.52;;;6.85;;
45970;SDS011;31681;48.982;8.394;2023-06-22T12:20:57;11.25;;;6.53;;
45970;SDS011;31681;48.982;8.394;2023-06-22T12:23:25;11.25;;;7.22;;
45970;SDS011;31681;48.982;8.394;2023-06-22T12:25:53;10.57;;;6.40;;
45970;SDS011;31681;48.982;8.394;2023-06-22T12:28:29;12.50;;;6.57;;
45970;SDS011;31681;48.982;8.394;2023-06-22T12:31:03;9.90;;;6.68;;
45970;SDS011;31681;48.982;8.394;2023-06-22T12:33:39;12.57;;;6.85;;
45970;SDS011;31681;48.982;8.394;2023-06-22T12:36:14;10.32;;;6.57;;
45970;SDS011;31681;48.982;8.394;2023-06-22T12:38:41;11.35;;;7.38;;
45970;SDS011;31681;48.982;8.394;2023-06-22T12:41:20;10.32;;;6.75;;
45970;SDS011;31681;48.982;8.394;2023-06-22T12:43:48;13.25;;;6.90;;
45970;SDS011;31681;48.982;8.394;2023-06-22T12:46:28;10.68;;;6.43;;
45970;SDS011;31681;48.982;8.394;2023-06-22T12:48:58;8.50;;;6.97;;
45970;SDS011;31681;48.982;8.394;2023-06-22T12:51:32;12.82;;;7.35;;
45970;SDS011;31681;48.982;8.394;2023-06-22T12:54:08;12.30;;;6.30;;
45970;SDS011;31681;48.982;8.394;2023-06-22T12:56:33;9.80;;;7.13;;
45970;SDS011;31681;48.982;8.394;2023-06-22T12:59:01;11.73;;;6.90;;
45970;SDS011;31681;48.982;8.394;2023-06-22T13:01:30;17.92;;;7.00;;
45970;SDS011;31681;48.982;8.394;2023-06-22T13:03:55;10.15;;;6.78;;
45970;SDS011;31681;48.982;8.394;2023-06-22T13:06:21;8.85;;;6.43;;
45970;SDS011;31681;48.982;8.394;2023-06-22T13:08:46;13.57;;;6.88;;
45970;SDS011;31681;48.982;8.394;2023-06-22T13:11:28;13.80;;;7.47;;
45970;SDS011;31681;48.982;8.394;2023-06-22T13:13:53;10.18;;;7.38;;
45970;SDS011;31681;48.982;8.394;2023-06-22T13:16:35;13.63;;;6.93;;
45970;SDS011;31681;48.982;8.394;2023-06-22T13:19:00;13.10;;;7.07;;
45970;SDS011;31681;48.982;8.394;2023-06-22T13:21:40;12.25;;;7.80;;
45970;SDS011;31681;48.982;8.394;2023-06-22T13:24:08;8.15;;;6.43;;
45970;SDS011;31681;48.982;8.394;2023-06-22T13:26:38;11.68;;;6.93;;
45970;SDS011;31681;48.982;8.394;2023-06-22T13:29:15;8.77;;;6.78;;
45970;SDS011;31681;48.982;8.394;2023-06-22T13:31:40;9.13;;;7.22;;
45970;SDS011;31681;48.982;8.394;2023-06-22T13:34:16;9.90;;;7.75;;
45970;SDS011;31681;48.982;8.394;2023-06-22T13:36:58;9.73;;;7.07;;
45970;SDS011;31681;48.982;8.394;2023-06-22T13:39:25;11.35;;;7.05;;
45970;SDS011;31681;48.982;8.394;2023-06-22T13:42:01;9.20;;;6.57;;
45970;SDS011;31681;48.982;8.394;2023-06-22T13:44:32;12.18;;;6.88;;
45970;SDS011;31681;48.982;8.394;2023-06-22T13:47:00;11.23;;;6.90;;
45970;SDS011;31681;48.982;8.394;2023-06-22T13:49:45;8.50;;;7.13;;
45970;SDS011;31681;48.982;8.394;2023-06-22T13:52:10;9.52;;;6.40;;
45970;SDS011;31681;48.982;8.394;2023-06-22T13:54:38;9.95;;;7.20;;
45970;SDS011;31681;48.982;8.394;2023-06-22T13:57:10;12.63;;;8.07;;
45970;SDS011;31681;48.982;8.394;2023-06-22T13:59:47;12.40;;;7.05;;
45970;SDS011;31681;48.982;8.394;2023-06-22T14:02:20;9.82;;;7.50;;
45970;SDS011;31681;48.982;8.394;2023-06-22T14:04:45;14.73;;;6.75;;
45970;SDS011;31681;48.982;8.394;2023-06-22T14:07:29;13.07;;;7.07;;
45970;SDS011;31681;48.982;8.394;2023-06-22T14:10:02;9.77;;;7.10;;
45970;SDS011;31681;48.982;8.394;2023-06-22T14:12:30;12.70;;;7.53;;
45970;SDS011;31681;48.982;8.394;2023-06-22T14:15:05;11.15;;;6.90;;
45970;SDS011;31681;48.982;8.394;2023-06-22T14:17:33;11.93;;;6.97;;
45970;SDS011;31681;48.982;8.394;2023-06-22T14:20:05;12.73;;;7.00;;
45970;SDS011;31681;48.982;8.394;2023-06-22T14:22:42;10.15;;;7.57;;
45970;SDS011;31681;48.982;8.394;2023-06-22T14:25:07;11.68;;;6.88;;
45970;SDS011;31681;48.982;8.394;2023-06-22T14:27:41;11.60;;;7.03;;
45970;SDS011;31681;48.982;8.394;2023-06-22T14:30:22;10.50;;;6.97;;
45970;SDS011;31681;48.982;8.394;2023-06-22T14:32:47;10.52;;;6.90;;
45970;SDS011;31681;48.982;8.394;2023-06-22T14:35:31;13.50;;;7.32;;
45970;SDS011;31681;48.982;8.394;2023-06-22T14:37:59;12.55;;;7.43;;
45970;SDS011;31681;48.982;8.394;2023-06-22T14:40:33;13.10;;;7.00;;
45970;SDS011;31681;48.982;8.394;2023-06-22T14:43:04;11.52;;;6.75;;
45970;SDS011;31681;48.982;8.394;2023-06-22T14:45:41;10.95;;;6.90;;
45970;SDS011;31681;48.982;8.394;2023-06-22T14:48:06;11.98;;;6.97;;
45970;SDS011;31681;48.982;8.394;2023-06-22T14:50:52;12.52;;;7.47;;
45970;SDS011;31681;48.982;8.394;2023-06-22T14:53:19;11.02;;;6.82;;
45970;SDS011;31681;48.982;8.394;2023-06-22T14:55:47;10.70;;;6.30;;
45970;SDS011;31681;48.982;8.394;2023-06-22T14:58:21;12.27;;;7.03;;
45970;SDS011;31681;48.982;8.394;2023-06-22T15:00:54;12.32;;;7.00;;
45970;SDS011;31681;48.982;8.394;2023-06-22T15:03:20;10.30;;;7.00;;
45970;SDS011;31681;48.982;8.394;2023-06-22T15:05:58;12.15;;;6.78;;
45970;SDS011;31681;48.982;8.394;2023-06-22T15:08:27;11.98;;;6.70;;